sensor_id;sensor_type;location;lat;lon;timestamp;P1;durP1;ratioP1;P2;durP2;ratioP2
10586;SDS011;5341;47.606;7.576;2023-01-04T00:00:26;10.52;;;8.40;;
10586;SDS011;5341;47.606;7.576;2023-01-04T00:02:54;11.50;;;8.85;;
10586;SDS011;5341;47.606;7.576;2023-01-04T00:05:21;11.82;;;9.68;;
10586;SDS011;5341;47.606;7.576;2023-01-04T00:07:49;13.30;;;9.10;;
10586;SDS011;5341;47.606;7.576;2023-01-04T00:10:26;12.05;;;9.23;;
10586;SDS011;5341;47.606;7.576;2023-01-04T00:13:06;11.52;;;9.45;;
10586;SDS011;5341;47.606;7.576;2023-01-04T00:15:46;11.95;;;9.60;;
10586;SDS011;5341;47.606;7.576;2023-01-04T00:18:23;10.65;;;8.55;;
10586;SDS011;5341;47.606;7.576;2023-01-04T00:20:54;13.77;;;10.13;;
10586;SDS011;5341;47.606;7.576;2023-01-04T00:23:22;12.82;;;10.23;;
10586;SDS011;5341;47.606;7.576;2023-01-04T00:25:51;11.95;;;9.52;;
10586;SDS011;5341;47.606;7.576;2023-01-04T00:28:20;12.10;;;10.23;;
10586;SDS011;5341;47.606;7.576;2023-01-04T00:30:48;11.55;;;9.15;;
10586;SDS011;5341;47.606;7.576;2023-01-04T00:33:16;10.60;;;9.05;;
10586;SDS011;5341;47.606;7.576;2023-01-04T00:35:45;11.57;;;9.75;;
10586;SDS011;5341;47.606;7.576;2023-01-04T00:38:13;11.98;;;8.55;;
10586;SDS011;5341;47.606;7.576;2023-01-04T00:40:46;11.40;;;9.10;;
10586;SDS011;5341;47.606;7.576;2023-01-04T00:43:17;11.10;;;9.15;;
10586;SDS011;5341;47.606;7.576;2023-01-04T00:45:47;13.20;;;8.55;;
10586;SDS011;5341;47.606;7.576;2023-01-04T00:48:15;10.85;;;8.48;;
10586;SDS011;5341;47.606;7.576;2023-01-04T00:50:43;9.68;;;8.50;;
10586;SDS011;5341;47.606;7.576;2023-01-04T00:53:12;10.70;;;8.82;;
10586;SDS011;5341;47.606;7.576;2023-01-04T00:55:40;10.25;;;8.32;;
10586;SDS011;5341;47.606;7.576;2023-01-04T00:58:08;10.50;;;8.68;;
10586;SDS011;5341;47.606;7.576;2023-01-04T01:00:36;10.98;;;8.80;;
10586;SDS011;5341;47.606;7.576;2023-01-04T01:03:06;10.90;;;9.15;;
10586;SDS011;5341;47.606;7.576;2023-01-04T01:05:33;10.70;;;8.57;;
10586;SDS011;5341;47.606;7.576;2023-01-04T01:08:02;9.85;;;8.25;;
10586;SDS011;5341;47.606;7.576;2023-01-04T01:10:44;8.55;;;7.10;;
10586;SDS011;5341;47.606;7.576;2023-01-04T01:13:11;9.95;;;7.78;;
10586;SDS011;5341;47.606;7.576;2023-01-04T01:15:40;9.50;;;7.70;;
10586;SDS011;5341;47.606;7.576;2023-01-04T01:18:09;9.25;;;8.05;;
10586;SDS011;5341;47.606;7.576;2023-01-04T01:20:39;9.02;;;7.63;;
10586;SDS011;5341;47.606;7.576;2023-01-04T01:23:10;8.20;;;6.90;;
10586;SDS011;5341;47.606;7.576;2023-01-04T01:25:38;9.07;;;7.25;;
10586;SDS011;5341;47.606;7.576;2023-01-04T01:28:06;7.95;;;7.00;;
10586;SDS011;5341;47.606;7.576;2023-01-04T01:30:38;7.72;;;6.85;;
10586;SDS011;5341;47.606;7.576;2023-01-04T01:33:08;7.72;;;6.72;;
10586;SDS011;5341;47.606;7.576;2023-01-04T01:35:36;7.55;;;6.68;;
10586;SDS011;5341;47.606;7.576;2023-01-04T01:38:04;8.50;;;6.75;;
10586;SDS011;5341;47.606;7.576;2023-01-04T01:40:32;7.82;;;6.53;;
10586;SDS011;5341;47.606;7.576;2023-01-04T01:42:59;7.88;;;6.97;;
10586;SDS011;5341;47.606;7.576;2023-01-04T01:45:29;7.32;;;6.63;;
10586;SDS011;5341;47.606;7.576;2023-01-04T01:48:00;8.45;;;7.18;;
10586;SDS011;5341;47.606;7.576;2023-01-04T01:50:34;7.82;;;6.63;;
10586;SDS011;5341;47.606;7.576;2023-01-04T01:53:04;8.52;;;7.15;;
10586;SDS011;5341;47.606;7.576;2023-01-04T01:55:34;7.55;;;6.25;;
10586;SDS011;5341;47.606;7.576;2023-01-04T01:58:06;7.55;;;6.72;;
10586;SDS011;5341;47.606;7.576;2023-01-04T02:00:36;7.07;;;6.30;;
10586;SDS011;5341;47.606;7.576;2023-01-04T02:03:11;7.05;;;6.18;;
10586;SDS011;5341;47.606;7.576;2023-01-04T02:05:42;7.28;;;6.38;;
10586;SDS011;5341;47.606;7.576;2023-01-04T02:08:11;8.18;;;5.88;;
10586;SDS011;5341;47.606;7.576;2023-01-04T02:10:40;8.98;;;6.72;;
10586;SDS011;5341;47.606;7.576;2023-01-04T02:13:08;8.68;;;6.55;;
10586;SDS011;5341;47.606;7.576;2023-01-04T02:15:44;6.82;;;6.13;;
10586;SDS011;5341;47.606;7.576;2023-01-04T02:18:20;7.75;;;6.80;;
10586;SDS011;5341;47.606;7.576;2023-01-04T02:20:54;7.85;;;6.93;;
10586;SDS011;5341;47.606;7.576;2023-01-04T02:23:36;7.13;;;6.43;;
10586;SDS011;5341;47.606;7.576;2023-01-04T02:26:35;7.53;;;6.43;;
10586;SDS011;5341;47.606;7.576;2023-01-04T02:29:40;7.93;;;6.60;;
10586;SDS011;5341;47.606;7.576;2023-01-04T02:32:27;8.35;;;6.72;;
10586;SDS011;5341;47.606;7.576;2023-01-04T02:35:07;7.82;;;6.72;;
10586;SDS011;5341;47.606;7.576;2023-01-04T02:37:45;7.72;;;6.75;;
10586;SDS011;5341;47.606;7.576;2023-01-04T02:40:18;7.78;;;6.97;;
10586;SDS011;5341;47.606;7.576;2023-01-04T02:42:57;8.65;;;7.40;;
10586;SDS011;5341;47.606;7.576;2023-01-04T02:45:47;7.63;;;6.72;;
10586;SDS011;5341;47.606;7.576;2023-01-04T02:48:22;8.90;;;6.93;;
10586;SDS011;5341;47.606;7.576;2023-01-04T02:51:21;7.70;;;6.90;;
10586;SDS011;5341;47.606;7.576;2023-01-04T02:53:55;8.43;;;6.60;;
10586;SDS011;5341;47.606;7.576;2023-01-04T02:56:28;6.75;;;6.05;;
10586;SDS011;5341;47.606;7.576;2023-01-04T02:59:09;7.40;;;6.60;;
10586;SDS011;5341;47.606;7.576;2023-01-04T03:01:55;8.20;;;6.25;;
10586;SDS011;5341;47.606;7.576;2023-01-04T03:05:03;6.75;;;5.50;;
10586;SDS011;5341;47.606;7.576;2023-01-04T03:11:50;6.05;;;5.13;;
10586;SDS011;5341;47.606;7.576;2023-01-04T03:15:00;6.00;;;5.03;;
10586;SDS011;5341;47.606;7.576;2023-01-04T03:17:36;6.13;;;5.45;;
10586;SDS011;5341;47.606;7.576;2023-01-04T03:20:10;6.55;;;5.88;;
10586;SDS011;5341;47.606;7.576;2023-01-04T03:22:40;6.80;;;5.93;;
10586;SDS011;5341;47.606;7.576;2023-01-04T03:25:30;7.53;;;6.38;;
10586;SDS011;5341;47.606;7.576;2023-01-04T03:28:21;10.00;;;7.00;;
10586;SDS011;5341;47.606;7.576;2023-01-04T03:31:11;7.22;;;6.28;;
10586;SDS011;5341;47.606;7.576;2023-01-04T03:34:03;7.28;;;6.47;;
10586;SDS011;5341;47.606;7.576;2023-01-04T03:37:07;8.05;;;6.50;;
10586;SDS011;5341;47.606;7.576;2023-01-04T03:39:44;7.13;;;6.03;;
10586;SDS011;5341;47.606;7.576;2023-01-04T03:42:44;7.05;;;6.35;;
10586;SDS011;5341;47.606;7.576;2023-01-04T03:45:37;8.38;;;6.43;;
10586;SDS011;5341;47.606;7.576;2023-01-04T03:48:28;7.95;;;6.95;;
10586;SDS011;5341;47.606;7.576;2023-01-04T03:51:07;7.38;;;6.22;;
10586;SDS011;5341;47.606;7.576;2023-01-04T03:53:44;7.85;;;6.43;;
10586;SDS011;5341;47.606;7.576;2023-01-04T03:56:20;7.70;;;6.22;;
10586;SDS011;5341;47.606;7.576;2023-01-04T03:58:50;8.13;;;6.78;;
10586;SDS011;5341;47.606;7.576;2023-01-04T04:01:22;7.65;;;6.85;;
10586;SDS011;5341;47.606;7.576;2023-01-04T04:03:51;7.65;;;6.35;;
10586;SDS011;5341;47.606;7.576;2023-01-04T04:06:37;7.63;;;6.32;;
10586;SDS011;5341;47.606;7.576;2023-01-04T04:09:24;7.93;;;6.07;;
10586;SDS011;5341;47.606;7.576;2023-01-04T04:11:51;6.80;;;5.82;;
10586;SDS011;5341;47.606;7.576;2023-01-04T04:14:19;6.32;;;5.20;;
10586;SDS011;5341;47.606;7.576;2023-01-04T04:16:48;6.18;;;5.50;;
10586;SDS011;5341;47.606;7.576;2023-01-04T04:19:16;9.45;;;6.53;;
10586;SDS011;5341;47.606;7.576;2023-01-04T04:21:44;8.07;;;6.78;;
10586;SDS011;5341;47.606;7.576;2023-01-04T04:24:14;8.52;;;7.00;;
10586;SDS011;5341;47.606;7.576;2023-01-04T04:26:45;8.90;;;7.13;;
10586;SDS011;5341;47.606;7.576;2023-01-04T04:29:12;9.27;;;7.00;;
10586;SDS011;5341;47.606;7.576;2023-01-04T04:31:40;8.27;;;7.38;;
10586;SDS011;5341;47.606;7.576;2023-01-04T04:34:08;8.55;;;7.22;;
10586;SDS011;5341;47.606;7.576;2023-01-04T04:36:39;9.60;;;7.72;;
10586;SDS011;5341;47.606;7.576;2023-01-04T04:39:07;8.15;;;7.30;;
10586;SDS011;5341;47.606;7.576;2023-01-04T04:41:37;8.15;;;6.72;;
10586;SDS011;5341;47.606;7.576;2023-01-04T04:44:05;8.10;;;6.53;;
10586;SDS011;5341;47.606;7.576;2023-01-04T04:46:34;8.30;;;7.20;;
10586;SDS011;5341;47.606;7.576;2023-01-04T04:49:01;10.38;;;7.30;;
10586;SDS011;5341;47.606;7.576;2023-01-04T04:51:30;8.43;;;7.10;;
10586;SDS011;5341;47.606;7.576;2023-01-04T04:53:59;8.07;;;7.00;;
10586;SDS011;5341;47.606;7.576;2023-01-04T04:56:28;9.55;;;6.75;;
10586;SDS011;5341;47.606;7.576;2023-01-04T04:58:56;8.82;;;6.72;;
10586;SDS011;5341;47.606;7.576;2023-01-04T05:01:25;10.30;;;7.82;;
10586;SDS011;5341;47.606;7.576;2023-01-04T05:03:53;7.57;;;6.60;;
10586;SDS011;5341;47.606;7.576;2023-01-04T05:06:20;8.27;;;6.53;;
10586;SDS011;5341;47.606;7.576;2023-01-04T05:08:48;8.98;;;6.95;;
10586;SDS011;5341;47.606;7.576;2023-01-04T05:11:17;9.27;;;7.15;;
10586;SDS011;5341;47.606;7.576;2023-01-04T05:14:07;8.98;;;7.20;;
10586;SDS011;5341;47.606;7.576;2023-01-04T05:16:36;9.30;;;7.40;;
10586;SDS011;5341;47.606;7.576;2023-01-04T05:19:04;9.52;;;7.28;;
10586;SDS011;5341;47.606;7.576;2023-01-04T05:21:32;8.82;;;7.32;;
10586;SDS011;5341;47.606;7.576;2023-01-04T05:24:00;8.48;;;6.65;;
10586;SDS011;5341;47.606;7.576;2023-01-04T05:26:28;9.20;;;7.10;;
10586;SDS011;5341;47.606;7.576;2023-01-04T05:28:55;8.88;;;7.60;;
10586;SDS011;5341;47.606;7.576;2023-01-04T05:31:23;9.18;;;7.60;;
10586;SDS011;5341;47.606;7.576;2023-01-04T05:33:52;9.18;;;6.70;;
10586;SDS011;5341;47.606;7.576;2023-01-04T05:36:20;9.77;;;6.85;;
10586;SDS011;5341;47.606;7.576;2023-01-04T05:38:48;8.65;;;6.38;;
10586;SDS011;5341;47.606;7.576;2023-01-04T05:41:16;8.35;;;6.57;;
10586;SDS011;5341;47.606;7.576;2023-01-04T05:44:06;7.43;;;5.85;;
10586;SDS011;5341;47.606;7.576;2023-01-04T05:46:34;6.30;;;5.28;;
10586;SDS011;5341;47.606;7.576;2023-01-04T05:49:04;6.63;;;5.43;;
10586;SDS011;5341;47.606;7.576;2023-01-04T05:51:32;6.63;;;5.40;;
10586;SDS011;5341;47.606;7.576;2023-01-04T05:54:00;7.90;;;5.20;;
10586;SDS011;5341;47.606;7.576;2023-01-04T05:56:28;6.28;;;5.28;;
10586;SDS011;5341;47.606;7.576;2023-01-04T05:58:56;6.80;;;5.25;;
10586;SDS011;5341;47.606;7.576;2023-01-04T06:01:23;6.30;;;4.85;;
10586;SDS011;5341;47.606;7.576;2023-01-04T06:03:52;6.35;;;5.13;;
10586;SDS011;5341;47.606;7.576;2023-01-04T06:06:22;6.75;;;5.35;;
10586;SDS011;5341;47.606;7.576;2023-01-04T06:08:49;7.80;;;6.00;;
10586;SDS011;5341;47.606;7.576;2023-01-04T06:11:17;7.10;;;5.82;;
10586;SDS011;5341;47.606;7.576;2023-01-04T06:13:44;8.18;;;6.57;;
10586;SDS011;5341;47.606;7.576;2023-01-04T06:16:12;9.85;;;6.43;;
10586;SDS011;5341;47.606;7.576;2023-01-04T06:18:41;8.25;;;6.68;;
10586;SDS011;5341;47.606;7.576;2023-01-04T06:21:09;7.43;;;5.63;;
10586;SDS011;5341;47.606;7.576;2023-01-04T06:23:38;9.55;;;5.85;;
10586;SDS011;5341;47.606;7.576;2023-01-04T06:26:06;8.05;;;5.60;;
10586;SDS011;5341;47.606;7.576;2023-01-04T06:28:33;6.57;;;5.28;;
10586;SDS011;5341;47.606;7.576;2023-01-04T06:31:02;8.60;;;5.75;;
10586;SDS011;5341;47.606;7.576;2023-01-04T06:33:30;6.78;;;5.20;;
10586;SDS011;5341;47.606;7.576;2023-01-04T06:35:58;8.05;;;5.63;;
10586;SDS011;5341;47.606;7.576;2023-01-04T06:38:27;7.78;;;5.07;;
10586;SDS011;5341;47.606;7.576;2023-01-04T06:40:57;6.75;;;5.20;;
10586;SDS011;5341;47.606;7.576;2023-01-04T06:43:26;6.90;;;5.43;;
10586;SDS011;5341;47.606;7.576;2023-01-04T06:45:54;6.55;;;5.20;;
10586;SDS011;5341;47.606;7.576;2023-01-04T06:48:23;6.90;;;5.05;;
10586;SDS011;5341;47.606;7.576;2023-01-04T06:50:50;6.25;;;5.10;;
10586;SDS011;5341;47.606;7.576;2023-01-04T06:53:19;5.95;;;4.90;;
10586;SDS011;5341;47.606;7.576;2023-01-04T06:55:46;5.55;;;4.57;;
10586;SDS011;5341;47.606;7.576;2023-01-04T06:58:16;5.90;;;4.93;;
10586;SDS011;5341;47.606;7.576;2023-01-04T07:00:44;6.82;;;4.75;;
10586;SDS011;5341;47.606;7.576;2023-01-04T07:03:12;5.60;;;4.57;;
10586;SDS011;5341;47.606;7.576;2023-01-04T07:05:39;6.65;;;4.50;;
10586;SDS011;5341;47.606;7.576;2023-01-04T07:08:07;4.53;;;4.10;;
10586;SDS011;5341;47.606;7.576;2023-01-04T07:10:36;5.25;;;4.07;;
10586;SDS011;5341;47.606;7.576;2023-01-04T07:13:04;4.00;;;3.42;;
10586;SDS011;5341;47.606;7.576;2023-01-04T07:15:34;5.00;;;3.70;;
10586;SDS011;5341;47.606;7.576;2023-01-04T07:18:01;5.82;;;3.70;;
10586;SDS011;5341;47.606;7.576;2023-01-04T07:20:29;4.97;;;3.85;;
10586;SDS011;5341;47.606;7.576;2023-01-04T07:22:57;5.05;;;3.88;;
10586;SDS011;5341;47.606;7.576;2023-01-04T07:25:24;6.35;;;3.75;;
10586;SDS011;5341;47.606;7.576;2023-01-04T07:27:52;4.97;;;4.28;;
10586;SDS011;5341;47.606;7.576;2023-01-04T07:30:22;5.20;;;4.18;;
10586;SDS011;5341;47.606;7.576;2023-01-04T07:32:51;4.72;;;4.20;;
10586;SDS011;5341;47.606;7.576;2023-01-04T07:35:21;6.18;;;4.75;;
10586;SDS011;5341;47.606;7.576;2023-01-04T07:37:49;5.45;;;4.30;;
10586;SDS011;5341;47.606;7.576;2023-01-04T07:40:17;5.15;;;4.03;;
10586;SDS011;5341;47.606;7.576;2023-01-04T07:42:52;5.13;;;4.13;;
10586;SDS011;5341;47.606;7.576;2023-01-04T07:45:21;5.60;;;4.35;;
10586;SDS011;5341;47.606;7.576;2023-01-04T07:47:50;7.07;;;4.50;;
10586;SDS011;5341;47.606;7.576;2023-01-04T07:50:18;5.32;;;4.35;;
10586;SDS011;5341;47.606;7.576;2023-01-04T07:52:47;6.97;;;4.20;;
10586;SDS011;5341;47.606;7.576;2023-01-04T07:55:15;5.82;;;4.40;;
10586;SDS011;5341;47.606;7.576;2023-01-04T07:57:42;6.57;;;4.90;;
10586;SDS011;5341;47.606;7.576;2023-01-04T08:00:11;5.22;;;3.95;;
10586;SDS011;5341;47.606;7.576;2023-01-04T08:02:39;5.57;;;4.55;;
10586;SDS011;5341;47.606;7.576;2023-01-04T08:05:08;5.78;;;4.50;;
10586;SDS011;5341;47.606;7.576;2023-01-04T08:07:36;6.95;;;4.30;;
10586;SDS011;5341;47.606;7.576;2023-01-04T08:10:04;5.05;;;4.35;;
10586;SDS011;5341;47.606;7.576;2023-01-04T08:12:32;6.63;;;4.25;;
10586;SDS011;5341;47.606;7.576;2023-01-04T08:15:01;6.22;;;4.32;;
10586;SDS011;5341;47.606;7.576;2023-01-04T08:17:32;9.68;;;4.80;;
10586;SDS011;5341;47.606;7.576;2023-01-04T08:19:59;6.53;;;4.65;;
10586;SDS011;5341;47.606;7.576;2023-01-04T08:22:29;7.95;;;4.93;;
10586;SDS011;5341;47.606;7.576;2023-01-04T08:24:57;6.10;;;4.80;;
10586;SDS011;5341;47.606;7.576;2023-01-04T08:27:25;7.20;;;5.18;;
10586;SDS011;5341;47.606;7.576;2023-01-04T08:29:53;6.18;;;4.97;;
10586;SDS011;5341;47.606;7.576;2023-01-04T08:32:21;8.13;;;5.05;;
10586;SDS011;5341;47.606;7.576;2023-01-04T08:34:50;5.13;;;4.63;;
10586;SDS011;5341;47.606;7.576;2023-01-04T08:37:19;7.80;;;4.78;;
10586;SDS011;5341;47.606;7.576;2023-01-04T08:39:49;5.97;;;4.65;;
10586;SDS011;5341;47.606;7.576;2023-01-04T08:42:22;5.50;;;4.60;;
10586;SDS011;5341;47.606;7.576;2023-01-04T08:44:50;6.60;;;5.20;;
10586;SDS011;5341;47.606;7.576;2023-01-04T08:47:18;7.70;;;5.13;;
10586;SDS011;5341;47.606;7.576;2023-01-04T08:49:46;8.35;;;5.13;;
10586;SDS011;5341;47.606;7.576;2023-01-04T08:52:14;6.63;;;5.03;;
10586;SDS011;5341;47.606;7.576;2023-01-04T08:54:42;6.90;;;5.07;;
10586;SDS011;5341;47.606;7.576;2023-01-04T08:57:11;8.27;;;5.47;;
10586;SDS011;5341;47.606;7.576;2023-01-04T08:59:38;8.00;;;5.75;;
10586;SDS011;5341;47.606;7.576;2023-01-04T09:02:09;7.15;;;5.93;;
10586;SDS011;5341;47.606;7.576;2023-01-04T09:04:46;8.45;;;5.68;;
10586;SDS011;5341;47.606;7.576;2023-01-04T09:07:16;6.25;;;5.07;;
10586;SDS011;5341;47.606;7.576;2023-01-04T09:09:44;5.63;;;5.03;;
10586;SDS011;5341;47.606;7.576;2023-01-04T09:12:13;6.32;;;5.40;;
10586;SDS011;5341;47.606;7.576;2023-01-04T09:14:40;5.95;;;4.75;;
10586;SDS011;5341;47.606;7.576;2023-01-04T09:17:08;7.32;;;4.85;;
10586;SDS011;5341;47.606;7.576;2023-01-04T09:19:36;6.20;;;5.10;;
10586;SDS011;5341;47.606;7.576;2023-01-04T09:22:05;8.32;;;5.90;;
10586;SDS011;5341;47.606;7.576;2023-01-04T09:24:33;7.85;;;6.03;;
10586;SDS011;5341;47.606;7.576;2023-01-04T09:27:01;7.53;;;5.60;;
10586;SDS011;5341;47.606;7.576;2023-01-04T09:29:31;7.05;;;5.22;;
10586;SDS011;5341;47.606;7.576;2023-01-04T09:31:59;7.93;;;5.72;;
10586;SDS011;5341;47.606;7.576;2023-01-04T09:34:28;9.10;;;6.93;;
10586;SDS011;5341;47.606;7.576;2023-01-04T09:36:56;7.57;;;5.85;;
10586;SDS011;5341;47.606;7.576;2023-01-04T09:39:23;9.13;;;6.25;;
10586;SDS011;5341;47.606;7.576;2023-01-04T09:41:55;8.88;;;6.18;;
10586;SDS011;5341;47.606;7.576;2023-01-04T09:44:33;8.55;;;6.38;;
10586;SDS011;5341;47.606;7.576;2023-01-04T09:47:05;8.23;;;6.25;;
10586;SDS011;5341;47.606;7.576;2023-01-04T09:49:37;7.90;;;6.22;;
10586;SDS011;5341;47.606;7.576;2023-01-04T09:52:11;7.63;;;5.75;;
10586;SDS011;5341;47.606;7.576;2023-01-04T09:54:43;7.88;;;5.68;;
10586;SDS011;5341;47.606;7.576;2023-01-04T09:57:16;9.18;;;6.05;;
10586;SDS011;5341;47.606;7.576;2023-01-04T09:59:53;7.68;;;5.15;;
10586;SDS011;5341;47.606;7.576;2023-01-04T10:02:28;6.88;;;4.78;;
10586;SDS011;5341;47.606;7.576;2023-01-04T10:05:05;6.68;;;4.90;;
10586;SDS011;5341;47.606;7.576;2023-01-04T10:07:34;9.77;;;5.68;;
10586;SDS011;5341;47.606;7.576;2023-01-04T10:10:02;7.13;;;4.85;;
10586;SDS011;5341;47.606;7.576;2023-01-04T10:12:37;6.88;;;5.15;;
10586;SDS011;5341;47.606;7.576;2023-01-04T10:15:25;6.35;;;5.05;;
10586;SDS011;5341;47.606;7.576;2023-01-04T10:18:11;6.82;;;5.55;;
10586;SDS011;5341;47.606;7.576;2023-01-04T10:20:55;8.15;;;5.80;;
10586;SDS011;5341;47.606;7.576;2023-01-04T10:23:49;7.32;;;5.95;;
10586;SDS011;5341;47.606;7.576;2023-01-04T10:26:29;5.38;;;4.72;;
10586;SDS011;5341;47.606;7.576;2023-01-04T10:32:10;11.95;;;6.20;;
10586;SDS011;5341;47.606;7.576;2023-01-04T10:34:45;8.38;;;5.82;;
10586;SDS011;5341;47.606;7.576;2023-01-04T10:37:14;6.68;;;5.45;;
10586;SDS011;5341;47.606;7.576;2023-01-04T10:39:46;6.03;;;4.97;;
10586;SDS011;5341;47.606;7.576;2023-01-04T10:42:20;6.88;;;5.65;;
10586;SDS011;5341;47.606;7.576;2023-01-04T10:45:03;6.95;;;5.57;;
10586;SDS011;5341;47.606;7.576;2023-01-04T10:47:42;6.13;;;5.32;;
10586;SDS011;5341;47.606;7.576;2023-01-04T10:50:17;7.70;;;6.53;;
10586;SDS011;5341;47.606;7.576;2023-01-04T10:52:52;6.18;;;5.47;;
10586;SDS011;5341;47.606;7.576;2023-01-04T10:55:30;6.00;;;4.88;;
10586;SDS011;5341;47.606;7.576;2023-01-04T10:58:08;7.18;;;5.65;;
10586;SDS011;5341;47.606;7.576;2023-01-04T11:00:43;8.23;;;5.20;;
10586;SDS011;5341;47.606;7.576;2023-01-04T11:03:18;5.90;;;5.20;;
10586;SDS011;5341;47.606;7.576;2023-01-04T11:05:52;7.25;;;5.70;;
10586;SDS011;5341;47.606;7.576;2023-01-04T11:08:27;6.60;;;5.45;;
10586;SDS011;5341;47.606;7.576;2023-01-04T11:11:03;6.47;;;5.63;;
10586;SDS011;5341;47.606;7.576;2023-01-04T11:13:35;7.22;;;5.85;;
10586;SDS011;5341;47.606;7.576;2023-01-04T11:16:04;6.55;;;5.53;;
10586;SDS011;5341;47.606;7.576;2023-01-04T11:18:37;6.20;;;5.05;;
10586;SDS011;5341;47.606;7.576;2023-01-04T11:21:10;6.75;;;5.15;;
10586;SDS011;5341;47.606;7.576;2023-01-04T11:23:40;6.80;;;5.05;;
10586;SDS011;5341;47.606;7.576;2023-01-04T11:26:10;7.93;;;5.57;;
10586;SDS011;5341;47.606;7.576;2023-01-04T11:28:45;8.27;;;4.85;;
10586;SDS011;5341;47.606;7.576;2023-01-04T11:31:17;8.73;;;5.53;;
10586;SDS011;5341;47.606;7.576;2023-01-04T11:33:53;5.68;;;4.38;;
10586;SDS011;5341;47.606;7.576;2023-01-04T11:36:36;6.57;;;4.70;;
10586;SDS011;5341;47.606;7.576;2023-01-04T11:39:06;4.65;;;4.22;;
10586;SDS011;5341;47.606;7.576;2023-01-04T11:41:52;4.78;;;4.28;;
10586;SDS011;5341;47.606;7.576;2023-01-04T11:44:22;7.40;;;4.35;;
10586;SDS011;5341;47.606;7.576;2023-01-04T11:47:03;5.22;;;4.40;;
10586;SDS011;5341;47.606;7.576;2023-01-04T11:49:35;10.65;;;7.20;;
10586;SDS011;5341;47.606;7.576;2023-01-04T11:52:03;8.70;;;6.32;;
10586;SDS011;5341;47.606;7.576;2023-01-04T11:54:33;10.07;;;6.45;;
10586;SDS011;5341;47.606;7.576;2023-01-04T11:57:01;6.05;;;4.90;;
10586;SDS011;5341;47.606;7.576;2023-01-04T11:59:32;5.80;;;4.70;;
10586;SDS011;5341;47.606;7.576;2023-01-04T12:02:15;8.00;;;5.47;;
10586;SDS011;5341;47.606;7.576;2023-01-04T12:04:47;5.30;;;4.43;;
10586;SDS011;5341;47.606;7.576;2023-01-04T12:07:22;6.40;;;4.43;;
10586;SDS011;5341;47.606;7.576;2023-01-04T12:09:54;5.25;;;4.38;;
10586;SDS011;5341;47.606;7.576;2023-01-04T12:12:26;5.35;;;4.07;;
10586;SDS011;5341;47.606;7.576;2023-01-04T12:14:55;5.65;;;4.50;;
10586;SDS011;5341;47.606;7.576;2023-01-04T12:17:29;6.68;;;4.80;;
10586;SDS011;5341;47.606;7.576;2023-01-04T12:20:13;6.55;;;4.95;;
10586;SDS011;5341;47.606;7.576;2023-01-04T12:22:43;8.18;;;4.40;;
10586;SDS011;5341;47.606;7.576;2023-01-04T12:25:20;6.57;;;4.65;;
10586;SDS011;5341;47.606;7.576;2023-01-04T12:27:53;5.63;;;4.78;;
10586;SDS011;5341;47.606;7.576;2023-01-04T12:30:34;6.05;;;4.40;;
10586;SDS011;5341;47.606;7.576;2023-01-04T12:36:07;6.78;;;4.35;;
10586;SDS011;5341;47.606;7.576;2023-01-04T12:44:57;6.35;;;4.90;;
10586;SDS011;5341;47.606;7.576;2023-01-04T12:47:47;6.25;;;3.70;;
10586;SDS011;5341;47.606;7.576;2023-01-04T12:51:15;6.65;;;4.43;;
10586;SDS011;5341;47.606;7.576;2023-01-04T12:53:49;6.13;;;4.70;;
10586;SDS011;5341;47.606;7.576;2023-01-04T12:56:23;5.35;;;3.83;;
10586;SDS011;5341;47.606;7.576;2023-01-04T12:59:32;5.15;;;3.97;;
10586;SDS011;5341;47.606;7.576;2023-01-04T13:04:45;4.97;;;3.80;;
10586;SDS011;5341;47.606;7.576;2023-01-04T13:07:16;7.18;;;4.18;;
10586;SDS011;5341;47.606;7.576;2023-01-04T13:09:52;6.15;;;4.10;;
10586;SDS011;5341;47.606;7.576;2023-01-04T13:12:43;5.65;;;3.67;;
10586;SDS011;5341;47.606;7.576;2023-01-04T13:15:31;4.55;;;3.70;;
10586;SDS011;5341;47.606;7.576;2023-01-04T13:18:15;5.53;;;3.92;;
10586;SDS011;5341;47.606;7.576;2023-01-04T13:20:59;4.68;;;3.80;;
10586;SDS011;5341;47.606;7.576;2023-01-04T13:23:27;6.18;;;3.92;;
10586;SDS011;5341;47.606;7.576;2023-01-04T13:29:06;7.32;;;4.93;;
10586;SDS011;5341;47.606;7.576;2023-01-04T13:31:47;7.70;;;4.85;;
10586;SDS011;5341;47.606;7.576;2023-01-04T13:34:17;6.30;;;5.00;;
10586;SDS011;5341;47.606;7.576;2023-01-04T13:36:55;6.50;;;4.80;;
10586;SDS011;5341;47.606;7.576;2023-01-04T13:39:37;9.50;;;5.78;;
10586;SDS011;5341;47.606;7.576;2023-01-04T13:42:21;6.38;;;5.10;;
10586;SDS011;5341;47.606;7.576;2023-01-04T13:47:55;7.35;;;5.68;;
10586;SDS011;5341;47.606;7.576;2023-01-04T13:50:31;7.55;;;6.03;;
10586;SDS011;5341;47.606;7.576;2023-01-04T13:53:02;8.48;;;5.85;;
10586;SDS011;5341;47.606;7.576;2023-01-04T13:55:36;7.88;;;5.50;;
10586;SDS011;5341;47.606;7.576;2023-01-04T13:58:13;7.85;;;5.43;;
10586;SDS011;5341;47.606;7.576;2023-01-04T14:00:44;7.93;;;5.43;;
10586;SDS011;5341;47.606;7.576;2023-01-04T14:03:21;7.63;;;5.47;;
10586;SDS011;5341;47.606;7.576;2023-01-04T14:09:13;7.88;;;5.15;;
10586;SDS011;5341;47.606;7.576;2023-01-04T14:11:44;9.25;;;5.38;;
10586;SDS011;5341;47.606;7.576;2023-01-04T14:14:38;7.75;;;5.20;;
10586;SDS011;5341;47.606;7.576;2023-01-04T14:17:17;10.98;;;5.68;;
10586;SDS011;5341;47.606;7.576;2023-01-04T14:19:48;11.13;;;7.43;;
10586;SDS011;5341;47.606;7.576;2023-01-04T14:22:24;10.07;;;7.50;;
10586;SDS011;5341;47.606;7.576;2023-01-04T14:25:00;11.63;;;7.18;;
10586;SDS011;5341;47.606;7.576;2023-01-04T14:27:44;8.20;;;6.57;;
10586;SDS011;5341;47.606;7.576;2023-01-04T14:30:21;12.40;;;7.40;;
10586;SDS011;5341;47.606;7.576;2023-01-04T14:32:58;8.20;;;6.53;;
10586;SDS011;5341;47.606;7.576;2023-01-04T14:35:59;7.78;;;6.47;;
10586;SDS011;5341;47.606;7.576;2023-01-04T14:38:29;7.30;;;6.13;;
10586;SDS011;5341;47.606;7.576;2023-01-04T14:41:08;8.55;;;6.03;;
10586;SDS011;5341;47.606;7.576;2023-01-04T14:43:42;7.13;;;6.00;;
10586;SDS011;5341;47.606;7.576;2023-01-04T14:46:13;9.13;;;6.63;;
10586;SDS011;5341;47.606;7.576;2023-01-04T14:48:41;7.82;;;5.95;;
10586;SDS011;5341;47.606;7.576;2023-01-04T14:51:09;9.65;;;6.47;;
10586;SDS011;5341;47.606;7.576;2023-01-04T14:53:41;8.40;;;6.03;;
10586;SDS011;5341;47.606;7.576;2023-01-04T14:56:10;9.07;;;6.32;;
10586;SDS011;5341;47.606;7.576;2023-01-04T14:58:39;9.32;;;6.28;;
10586;SDS011;5341;47.606;7.576;2023-01-04T15:01:08;10.43;;;6.30;;
10586;SDS011;5341;47.606;7.576;2023-01-04T15:03:38;8.90;;;5.53;;
10586;SDS011;5341;47.606;7.576;2023-01-04T15:06:06;9.25;;;6.30;;
10586;SDS011;5341;47.606;7.576;2023-01-04T15:08:34;9.10;;;6.47;;
10586;SDS011;5341;47.606;7.576;2023-01-04T15:11:01;10.48;;;7.35;;
10586;SDS011;5341;47.606;7.576;2023-01-04T15:13:29;11.40;;;6.82;;
10586;SDS011;5341;47.606;7.576;2023-01-04T15:15:57;8.65;;;7.15;;
10586;SDS011;5341;47.606;7.576;2023-01-04T15:18:24;8.85;;;6.82;;
10586;SDS011;5341;47.606;7.576;2023-01-04T15:20:54;11.43;;;7.35;;
10586;SDS011;5341;47.606;7.576;2023-01-04T15:23:21;9.10;;;6.70;;
10586;SDS011;5341;47.606;7.576;2023-01-04T15:25:53;10.57;;;6.60;;
10586;SDS011;5341;47.606;7.576;2023-01-04T15:28:21;8.75;;;5.97;;
10586;SDS011;5341;47.606;7.576;2023-01-04T15:30:50;9.30;;;6.25;;
10586;SDS011;5341;47.606;7.576;2023-01-04T15:33:18;8.48;;;6.32;;
10586;SDS011;5341;47.606;7.576;2023-01-04T15:35:46;10.93;;;6.40;;
10586;SDS011;5341;47.606;7.576;2023-01-04T15:38:16;7.43;;;5.53;;
10586;SDS011;5341;47.606;7.576;2023-01-04T15:40:45;6.90;;;5.63;;
10586;SDS011;5341;47.606;7.576;2023-01-04T15:43:18;9.13;;;5.68;;
10586;SDS011;5341;47.606;7.576;2023-01-04T15:45:45;7.13;;;6.00;;
10586;SDS011;5341;47.606;7.576;2023-01-04T15:48:13;8.90;;;5.70;;
10586;SDS011;5341;47.606;7.576;2023-01-04T15:50:40;8.18;;;5.65;;
10586;SDS011;5341;47.606;7.576;2023-01-04T15:53:08;7.45;;;5.03;;
10586;SDS011;5341;47.606;7.576;2023-01-04T15:55:38;8.15;;;5.78;;
10586;SDS011;5341;47.606;7.576;2023-01-04T15:58:06;9.13;;;5.43;;
10586;SDS011;5341;47.606;7.576;2023-01-04T16:00:33;9.85;;;6.07;;
10586;SDS011;5341;47.606;7.576;2023-01-04T16:03:02;7.82;;;5.60;;